Time;durP1;ratioP1;P1;durP2;ratioP2;P2;SDS_P1;SDS_P2;PMS_P1;PMS_P2;Temp;Humidity;BMP_temperature;BMP_pressure;BME280_temperature;BME280_humidity;BME280_pressure;Samples;Min_cycle;Max_cycle;Signal;HPM_P1;HPM_P2
2021/12/27 00:01:54;;;;;;;15.02;9.48;;;;;;;;;;4980485;28;20982;-86
2021/12/27 00:04:21;;;;;;;12.57;8.80;;;;;;;;;;4981137;28;20227;-86
2021/12/27 00:06:48;;;;;;;12.93;8.13;;;;;;;;;;4975667;28;20502;-86
2021/12/27 00:09:15;;;;;;;9.33;8.27;;;;;;;;;;4979985;28;21427;-86
2021/12/27 00:11:42;;;;;;;10.40;8.37;;;;;;;;;;4978720;28;20475;-87
2021/12/27 00:14:09;;;;;;;11.33;8.57;;;;;;;;;;4979531;28;20462;-86
2021/12/27 00:16:35;;;;;;;13.53;8.00;;;;;;;;;;4978685;28;20447;-86
2021/12/27 00:19:01;;;;;;;10.77;7.30;;;;;;;;;;4975958;28;20466;-87
2021/12/27 00:21:28;;;;;;;12.40;8.70;;;;;;;;;;4974791;28;21308;-87
2021/12/27 00:23:55;;;;;;;12.97;7.90;;;;;;;;;;4980218;28;20466;-86
2021/12/27 00:26:23;;;;;;;10.70;7.90;;;;;;;;;;4981541;28;20451;-88
2021/12/27 00:28:51;;;;;;;12.67;8.60;;;;;;;;;;5000647;28;20458;-85
2021/12/27 00:31:17;;;;;;;14.20;8.50;;;;;;;;;;5000952;28;20496;-87
2021/12/27 00:33:44;;;;;;;9.10;7.27;;;;;;;;;;4979387;28;20487;-86
2021/12/27 00:36:10;;;;;;;11.23;8.00;;;;;;;;;;4977048;28;20930;-87
2021/12/27 00:38:36;;;;;;;14.53;7.97;;;;;;;;;;4972553;28;20478;-86
2021/12/27 00:41:04;;;;;;;14.03;9.43;;;;;;;;;;4977171;28;20458;-86
2021/12/27 00:43:30;;;;;;;14.60;9.47;;;;;;;;;;4978186;28;20486;-86
2021/12/27 00:45:57;;;;;;;11.53;7.33;;;;;;;;;;4982227;28;20496;-86
2021/12/27 00:48:24;;;;;;;10.30;8.00;;;;;;;;;;4979622;28;21230;-86
2021/12/27 00:50:50;;;;;;;15.80;9.93;;;;;;;;;;4975093;28;20559;-86
2021/12/27 00:53:17;;;;;;;11.50;7.97;;;;;;;;;;4974554;28;20491;-86
2021/12/27 00:55:43;;;;;;;14.10;8.60;;;;;;;;;;4973875;28;20464;-85
2021/12/27 00:58:11;;;;;;;15.67;8.27;;;;;;;;;;4975675;28;20478;-85
2021/12/27 01:00:37;;;;;;;8.03;6.40;;;;;;;;;;4976742;28;20470;-86
2021/12/27 01:03:04;;;;;;;9.57;7.80;;;;;;;;;;4977418;28;20482;-86
2021/12/27 01:05:31;;;;;;;11.67;7.40;;;;;;;;;;4983763;28;20503;-86
2021/12/27 01:07:57;;;;;;;10.57;7.10;;;;;;;;;;5029966;22;20497;-83
2021/12/27 01:10:46;;;;;;;12.13;7.70;;;;;;;;;;5024539;28;20523;-82
2021/12/27 01:13:25;;;;;;;18.77;9.00;;;;;;;;;;5042705;28;20486;-82
2021/12/27 01:16:10;;;;;;;12.13;7.57;;;;;;;;;;5046776;28;21044;-82
2021/12/27 01:18:36;;;;;;;8.37;4.87;;;;;;;;;;5026473;28;20518;-81
2021/12/27 01:21:03;;;;;;;12.93;8.87;;;;;;;;;;5025555;28;20476;-82
2021/12/27 01:23:29;;;;;;;16.83;8.13;;;;;;;;;;5026041;28;21134;-82
2021/12/27 01:25:55;;;;;;;10.97;7.57;;;;;;;;;;5026136;28;21023;-82
2021/12/27 01:28:23;;;;;;;13.87;7.60;;;;;;;;;;5025363;28;20511;-82
2021/12/27 01:30:50;;;;;;;14.40;8.57;;;;;;;;;;5025102;28;20553;-82
2021/12/27 01:33:17;;;;;;;13.65;7.88;;;;;;;;;;5024819;28;20485;-82
2021/12/27 01:35:44;;;;;;;16.37;9.43;;;;;;;;;;5026327;28;20249;-81
2021/12/27 01:38:11;;;;;;;9.38;7.78;;;;;;;;;;5026024;28;20480;-81
2021/12/27 01:40:38;;;;;;;12.32;7.72;;;;;;;;;;5024255;28;20210;-82
2021/12/27 01:43:09;;;;;;;13.90;9.00;;;;;;;;;;5025983;28;20292;-82
2021/12/27 01:45:39;;;;;;;11.63;7.60;;;;;;;;;;5025332;28;20492;-82
2021/12/27 01:48:07;;;;;;;10.30;8.47;;;;;;;;;;5025737;28;20486;-82
2021/12/27 01:50:33;;;;;;;11.07;7.97;;;;;;;;;;5025371;28;20500;-82
2021/12/27 01:52:59;;;;;;;10.67;7.37;;;;;;;;;;5025547;28;20468;-82
2021/12/27 01:55:26;;;;;;;14.90;8.73;;;;;;;;;;5027237;28;20449;-82
2021/12/27 01:57:52;;;;;;;12.77;7.20;;;;;;;;;;5023805;28;21006;-82
2021/12/27 02:00:18;;;;;;;13.10;7.93;;;;;;;;;;5026348;28;20867;-82
2021/12/27 02:02:46;;;;;;;10.80;7.70;;;;;;;;;;5025492;28;20464;-81
2021/12/27 02:05:14;;;;;;;18.70;8.33;;;;;;;;;;5023538;28;20489;-82
2021/12/27 02:07:40;;;;;;;13.20;7.77;;;;;;;;;;5023764;28;20477;-82
2021/12/27 02:10:07;;;;;;;16.53;8.33;;;;;;;;;;5025324;28;20446;-82
2021/12/27 02:12:33;;;;;;;12.90;6.73;;;;;;;;;;5023864;28;20524;-82
2021/12/27 02:15:03;;;;;;;12.13;8.10;;;;;;;;;;5024762;28;20515;-82
2021/12/27 02:17:29;;;;;;;10.40;7.50;;;;;;;;;;5022856;28;20836;-83
2021/12/27 02:19:56;;;;;;;9.07;6.80;;;;;;;;;;5024175;28;21035;-82
2021/12/27 02:22:23;;;;;;;12.47;8.60;;;;;;;;;;5020555;28;20478;-82
2021/12/27 02:24:49;;;;;;;15.70;9.07;;;;;;;;;;5023415;28;20519;-82
2021/12/27 02:27:16;;;;;;;9.03;6.90;;;;;;;;;;5025475;28;20484;-82
2021/12/27 02:29:43;;;;;;;9.90;7.20;;;;;;;;;;5025256;28;21105;-82
2021/12/27 02:32:09;;;;;;;12.40;7.83;;;;;;;;;;5025339;28;20476;-82
2021/12/27 02:34:35;;;;;;;12.30;8.17;;;;;;;;;;5024541;28;20875;-82
2021/12/27 02:37:03;;;;;;;11.17;7.87;;;;;;;;;;5023490;28;21242;-82
2021/12/27 02:39:30;;;;;;;13.03;7.80;;;;;;;;;;5024559;28;21001;-83
2021/12/27 02:41:57;;;;;;;23.30;8.23;;;;;;;;;;5024003;28;20466;-82
2021/12/27 02:44:23;;;;;;;10.60;7.30;;;;;;;;;;5023723;28;20519;-82
2021/12/27 02:46:49;;;;;;;12.00;7.40;;;;;;;;;;5021233;28;20816;-82
2021/12/27 02:49:15;;;;;;;12.40;8.33;;;;;;;;;;5021526;28;20554;-83
2021/12/27 02:51:42;;;;;;;8.40;6.40;;;;;;;;;;5025000;28;20457;-82
2021/12/27 02:54:09;;;;;;;12.60;8.00;;;;;;;;;;5024297;28;20501;-82
2021/12/27 02:56:35;;;;;;;13.87;7.87;;;;;;;;;;5024624;28;20499;-82
2021/12/27 02:59:02;;;;;;;11.77;7.40;;;;;;;;;;5023142;28;20468;-82
2021/12/27 03:01:28;;;;;;;10.47;7.07;;;;;;;;;;5024205;28;20461;-82
2021/12/27 03:03:55;;;;;;;13.37;9.00;;;;;;;;;;5024098;28;20472;-81
2021/12/27 03:06:22;;;;;;;14.03;8.73;;;;;;;;;;5024572;28;20509;-80
2021/12/27 03:08:49;;;;;;;18.17;8.87;;;;;;;;;;5022555;28;20478;-82
2021/12/27 03:11:17;;;;;;;13.47;7.20;;;;;;;;;;5024267;28;20533;-82
2021/12/27 03:13:45;;;;;;;14.27;7.60;;;;;;;;;;5023305;28;21018;-80
2021/12/27 03:16:12;;;;;;;13.77;7.80;;;;;;;;;;5025212;28;21020;-82
2021/12/27 03:18:39;;;;;;;12.90;8.67;;;;;;;;;;5023502;28;20511;-81
2021/12/27 03:21:06;;;;;;;17.23;8.30;;;;;;;;;;5023789;28;20469;-82
2021/12/27 03:23:33;;;;;;;15.87;7.97;;;;;;;;;;5023641;28;20468;-82
2021/12/27 03:25:59;;;;;;;11.37;7.47;;;;;;;;;;5023058;28;20520;-82
2021/12/27 03:28:27;;;;;;;14.17;8.50;;;;;;;;;;5020984;28;20531;-82
2021/12/27 03:30:53;;;;;;;13.43;9.60;;;;;;;;;;5022726;28;21029;-82
2021/12/27 03:33:21;;;;;;;10.70;8.23;;;;;;;;;;5023737;28;20474;-82
2021/12/27 03:35:58;;;;;;;14.20;7.30;;;;;;;;;;5021188;28;20491;-82
2021/12/27 03:38:25;;;;;;;19.83;8.67;;;;;;;;;;5023196;28;20477;-82
2021/12/27 03:40:51;;;;;;;9.53;6.47;;;;;;;;;;5023916;28;20461;-82
2021/12/27 03:43:17;;;;;;;12.53;7.90;;;;;;;;;;5021613;28;20534;-82
2021/12/27 03:45:45;;;;;;;13.63;8.93;;;;;;;;;;5022950;28;20547;-81
2021/12/27 03:48:12;;;;;;;13.40;7.93;;;;;;;;;;5021045;28;20531;-82
2021/12/27 03:50:38;;;;;;;14.17;6.93;;;;;;;;;;5023128;28;20477;-82
2021/12/27 03:53:05;;;;;;;15.53;9.13;;;;;;;;;;5022439;28;20478;-82
2021/12/27 03:55:31;;;;;;;12.43;9.03;;;;;;;;;;5023708;28;20442;-82
2021/12/27 03:58:07;;;;;;;13.57;8.57;;;;;;;;;;5023270;28;20520;-82
2021/12/27 04:00:46;;;;;;;12.20;7.40;;;;;;;;;;5023822;28;20444;-82
2021/12/27 04:03:15;;;;;;;10.90;7.40;;;;;;;;;;5022676;28;20487;-82
2021/12/27 04:05:41;;;;;;;13.47;8.13;;;;;;;;;;5022400;28;20485;-82
2021/12/27 04:08:10;;;;;;;13.97;9.37;;;;;;;;;;5022619;28;20561;-82
2021/12/27 04:10:36;;;;;;;12.60;8.17;;;;;;;;;;5023473;28;20543;-82
2021/12/27 04:13:03;;;;;;;11.87;8.40;;;;;;;;;;5023502;28;20481;-82
2021/12/27 04:15:29;;;;;;;12.33;8.03;;;;;;;;;;5023350;28;20506;-82
2021/12/27 04:17:55;;;;;;;13.90;9.63;;;;;;;;;;5022554;28;20516;-82
2021/12/27 04:20:23;;;;;;;15.20;8.70;;;;;;;;;;5020604;28;20462;-82
2021/12/27 04:22:50;;;;;;;16.00;9.20;;;;;;;;;;5020036;28;21110;-82
2021/12/27 04:25:17;;;;;;;14.97;9.80;;;;;;;;;;5021720;28;21010;-82
2021/12/27 04:27:44;;;;;;;12.43;8.50;;;;;;;;;;5020314;28;20485;-81
2021/12/27 04:30:10;;;;;;;14.17;8.47;;;;;;;;;;5023532;28;20452;-82
2021/12/27 04:32:37;;;;;;;22.93;11.03;;;;;;;;;;5021986;28;20468;-82
2021/12/27 04:35:03;;;;;;;16.97;8.60;;;;;;;;;;5021004;28;20528;-82
2021/12/27 04:37:31;;;;;;;15.93;9.97;;;;;;;;;;5021622;28;21132;-82
2021/12/27 04:39:58;;;;;;;16.13;9.43;;;;;;;;;;5021589;28;20457;-82
2021/12/27 04:42:25;;;;;;;19.03;8.50;;;;;;;;;;5020712;28;20571;-82
2021/12/27 04:44:51;;;;;;;14.90;9.87;;;;;;;;;;5021551;28;20872;-82
2021/12/27 04:47:18;;;;;;;14.47;8.53;;;;;;;;;;5020141;28;20523;-82
2021/12/27 04:49:44;;;;;;;14.67;10.20;;;;;;;;;;5022181;28;20454;-82
2021/12/27 04:52:11;;;;;;;17.00;10.33;;;;;;;;;;5018858;28;20526;-82
2021/12/27 04:54:38;;;;;;;17.07;9.57;;;;;;;;;;5018354;28;20457;-82
2021/12/27 04:57:05;;;;;;;12.53;8.93;;;;;;;;;;5021298;28;20927;-82
2021/12/27 04:59:31;;;;;;;16.90;9.37;;;;;;;;;;5021999;28;20456;-82
2021/12/27 05:01:58;;;;;;;18.40;10.10;;;;;;;;;;5022711;28;20474;-82
2021/12/27 05:04:24;;;;;;;16.30;10.00;;;;;;;;;;5022162;28;20506;-82
2021/12/27 05:06:50;;;;;;;20.83;10.10;;;;;;;;;;5021900;28;20526;-82
2021/12/27 05:09:16;;;;;;;18.43;10.30;;;;;;;;;;5021430;28;20469;-82
2021/12/27 05:11:44;;;;;;;16.17;10.50;;;;;;;;;;5019719;28;20473;-81
2021/12/27 05:14:11;;;;;;;18.90;12.13;;;;;;;;;;5021230;28;20449;-82
2021/12/27 05:16:37;;;;;;;16.27;10.17;;;;;;;;;;5020588;28;20517;-82
2021/12/27 05:19:04;;;;;;;17.97;10.20;;;;;;;;;;5020866;28;20483;-83
2021/12/27 05:21:30;;;;;;;16.87;10.93;;;;;;;;;;5021787;28;20504;-82
2021/12/27 05:23:56;;;;;;;13.80;9.23;;;;;;;;;;5020167;28;20469;-81
2021/12/27 05:26:22;;;;;;;18.40;11.20;;;;;;;;;;5022725;28;20486;-82
2021/12/27 05:28:50;;;;;;;16.80;11.00;;;;;;;;;;5003999;28;20485;-82
2021/12/27 05:31:16;;;;;;;19.43;10.90;;;;;;;;;;5003308;28;20508;-80
2021/12/27 05:33:43;;;;;;;17.97;11.40;;;;;;;;;;5001382;28;20504;-80
2021/12/27 05:36:12;;;;;;;14.57;11.20;;;;;;;;;;5003572;28;20441;-82
2021/12/27 05:38:38;;;;;;;14.83;10.70;;;;;;;;;;5002107;28;20878;-82
2021/12/27 05:41:04;;;;;;;18.53;11.07;;;;;;;;;;5002121;28;20457;-82
2021/12/27 05:43:31;;;;;;;16.30;11.17;;;;;;;;;;5002945;28;20537;-82
2021/12/27 05:45:58;;;;;;;20.90;11.37;;;;;;;;;;5003786;28;20538;-82
2021/12/27 05:48:25;;;;;;;17.10;11.57;;;;;;;;;;5000757;28;20474;-81
2021/12/27 05:50:51;;;;;;;15.13;11.17;;;;;;;;;;5002799;28;20539;-81
2021/12/27 05:53:18;;;;;;;16.33;12.07;;;;;;;;;;4998982;28;20476;-82
2021/12/27 05:55:44;;;;;;;15.30;10.03;;;;;;;;;;5002678;28;20449;-82
2021/12/27 05:58:11;;;;;;;23.10;11.70;;;;;;;;;;5005243;28;20582;-82
2021/12/27 06:00:38;;;;;;;20.10;11.90;;;;;;;;;;5006316;28;20460;-82
2021/12/27 06:03:05;;;;;;;19.40;11.37;;;;;;;;;;5006357;28;21009;-82
2021/12/27 06:05:32;;;;;;;18.43;11.77;;;;;;;;;;5004263;28;20951;-82
2021/12/27 06:07:58;;;;;;;18.73;11.37;;;;;;;;;;5004680;28;20499;-81
2021/12/27 06:10:25;;;;;;;15.57;11.60;;;;;;;;;;5005304;28;20469;-82
2021/12/27 06:12:51;;;;;;;17.60;11.63;;;;;;;;;;5004838;28;20551;-82
2021/12/27 06:15:17;;;;;;;20.33;11.27;;;;;;;;;;5004984;28;20490;-83
2021/12/27 06:17:44;;;;;;;23.50;13.50;;;;;;;;;;5005881;28;20493;-82
2021/12/27 06:20:12;;;;;;;23.70;12.57;;;;;;;;;;5004695;28;20469;-82
2021/12/27 06:22:40;;;;;;;20.73;12.85;;;;;;;;;;5004978;28;20512;-82
2021/12/27 06:25:07;;;;;;;16.53;11.40;;;;;;;;;;5004529;28;20257;-82
2021/12/27 06:27:33;;;;;;;17.97;11.50;;;;;;;;;;5004643;28;20481;-82
2021/12/27 06:30:00;;;;;;;21.87;12.77;;;;;;;;;;5004246;28;20462;-82
2021/12/27 06:32:26;;;;;;;20.53;12.77;;;;;;;;;;5006020;28;20485;-82
2021/12/27 06:34:53;;;;;;;16.87;12.10;;;;;;;;;;5004389;28;20806;-82
2021/12/27 06:37:21;;;;;;;20.60;12.40;;;;;;;;;;5006112;28;20879;-81
2021/12/27 06:39:47;;;;;;;22.43;12.30;;;;;;;;;;5003782;28;20474;-82
2021/12/27 06:42:13;;;;;;;26.33;12.73;;;;;;;;;;5004522;28;20475;-82
2021/12/27 06:44:39;;;;;;;17.80;12.03;;;;;;;;;;5005145;28;20454;-82
2021/12/27 06:47:06;;;;;;;23.00;13.33;;;;;;;;;;5004421;28;20520;-82
2021/12/27 06:49:32;;;;;;;19.50;12.50;;;;;;;;;;5003150;28;20466;-82
2021/12/27 06:51:58;;;;;;;24.17;13.80;;;;;;;;;;5004046;28;20501;-82
2021/12/27 06:54:27;;;;;;;20.30;13.63;;;;;;;;;;5001992;28;20524;-82
2021/12/27 06:56:54;;;;;;;18.33;12.90;;;;;;;;;;5004529;28;20489;-81
2021/12/27 06:59:20;;;;;;;21.63;12.27;;;;;;;;;;5004914;28;20460;-82
2021/12/27 07:01:47;;;;;;;20.53;13.00;;;;;;;;;;5003577;28;20473;-82
2021/12/27 07:04:13;;;;;;;20.30;12.87;;;;;;;;;;5005369;28;20556;-82
2021/12/27 07:06:39;;;;;;;22.37;13.83;;;;;;;;;;5002816;28;20553;-84
2021/12/27 07:09:06;;;;;;;25.07;13.30;;;;;;;;;;5027621;23;20550;-86
2021/12/27 07:11:33;;;;;;;22.90;14.00;;;;;;;;;;5020836;28;20509;-86
2021/12/27 07:14:00;;;;;;;21.20;13.60;;;;;;;;;;5004268;28;20943;-87
2021/12/27 07:16:27;;;;;;;19.37;13.30;;;;;;;;;;5003178;28;20462;-86
2021/12/27 07:18:53;;;;;;;22.30;14.20;;;;;;;;;;5003655;28;20470;-86
2021/12/27 07:21:19;;;;;;;23.97;13.77;;;;;;;;;;5001762;28;20503;-86
2021/12/27 07:23:45;;;;;;;21.30;14.37;;;;;;;;;;5003974;28;20477;-86
2021/12/27 07:26:11;;;;;;;27.70;18.20;;;;;;;;;;5001180;28;20467;-87
2021/12/27 07:28:39;;;;;;;22.87;14.33;;;;;;;;;;5002309;28;20541;-86
2021/12/27 07:31:06;;;;;;;19.20;14.50;;;;;;;;;;5001476;28;20453;-85
2021/12/27 07:33:32;;;;;;;21.83;15.07;;;;;;;;;;5003338;28;20477;-87
2021/12/27 07:35:58;;;;;;;24.77;15.70;;;;;;;;;;5005364;28;21036;-86
2021/12/27 07:38:25;;;;;;;29.37;17.30;;;;;;;;;;5019103;28;20511;-87
2021/12/27 07:40:51;;;;;;;22.40;15.10;;;;;;;;;;5021164;28;20476;-85
2021/12/27 07:43:17;;;;;;;22.97;15.43;;;;;;;;;;5024301;28;20488;-85
2021/12/27 07:45:45;;;;;;;26.83;14.17;;;;;;;;;;5016745;28;20849;-87
2021/12/27 07:48:12;;;;;;;18.80;13.10;;;;;;;;;;5022577;28;20492;-86
2021/12/27 07:50:38;;;;;;;27.13;18.70;;;;;;;;;;5007730;28;20482;-87
2021/12/27 07:53:05;;;;;;;33.17;22.50;;;;;;;;;;5002579;28;20439;-87
2021/12/27 07:55:32;;;;;;;32.43;19.53;;;;;;;;;;5003120;28;21107;-87
2021/12/27 07:57:59;;;;;;;28.00;16.77;;;;;;;;;;5002497;28;20868;-85
2021/12/27 08:00:26;;;;;;;24.67;16.40;;;;;;;;;;5002476;28;20478;-85
2021/12/27 08:02:54;;;;;;;25.43;17.10;;;;;;;;;;5003716;28;20457;-87
2021/12/27 08:05:20;;;;;;;32.80;16.53;;;;;;;;;;5003125;28;20474;-86
2021/12/27 08:07:46;;;;;;;32.03;18.00;;;;;;;;;;5001968;28;20478;-86
2021/12/27 08:10:13;;;;;;;24.23;16.10;;;;;;;;;;5000175;28;20522;-85
2021/12/27 08:12:40;;;;;;;29.87;18.07;;;;;;;;;;5003879;28;20466;-85
2021/12/27 08:15:07;;;;;;;20.30;15.63;;;;;;;;;;5002427;28;20540;-86
2021/12/27 08:17:34;;;;;;;23.90;16.30;;;;;;;;;;4999522;28;21217;-85
2021/12/27 08:20:01;;;;;;;25.77;18.40;;;;;;;;;;4997450;28;20489;-85
2021/12/27 08:22:28;;;;;;;29.97;17.80;;;;;;;;;;5002742;28;20450;-88
2021/12/27 08:24:54;;;;;;;25.53;17.57;;;;;;;;;;5001495;28;21169;-87
2021/12/27 08:27:23;;;;;;;32.87;19.43;;;;;;;;;;4999669;28;20489;-86
2021/12/27 08:29:49;;;;;;;31.07;17.20;;;;;;;;;;5002839;28;20477;-86
2021/12/27 08:32:16;;;;;;;30.30;18.37;;;;;;;;;;5003200;28;20528;-87
2021/12/27 08:34:42;;;;;;;27.57;17.10;;;;;;;;;;5001517;28;20473;-85
2021/12/27 08:37:10;;;;;;;24.10;16.90;;;;;;;;;;5001910;28;20468;-84
2021/12/27 08:39:38;;;;;;;35.37;21.23;;;;;;;;;;5001243;28;20470;-87
2021/12/27 08:42:07;;;;;;;32.00;18.97;;;;;;;;;;5002474;28;20469;-85
2021/12/27 08:44:33;;;;;;;32.23;19.43;;;;;;;;;;5001593;28;20478;-85
2021/12/27 08:47:00;;;;;;;27.73;18.73;;;;;;;;;;5000221;28;21022;-86
2021/12/27 08:49:26;;;;;;;28.30;17.93;;;;;;;;;;5002240;28;21077;-86
2021/12/27 08:51:52;;;;;;;30.90;20.10;;;;;;;;;;5001947;28;20458;-87
2021/12/27 08:54:20;;;;;;;35.37;19.93;;;;;;;;;;5002309;28;20462;-86
2021/12/27 08:56:47;;;;;;;31.40;19.17;;;;;;;;;;5020601;28;20543;-85
2021/12/27 08:59:13;;;;;;;33.07;19.43;;;;;;;;;;5019338;28;20512;-86
2021/12/27 09:01:39;;;;;;;31.53;19.83;;;;;;;;;;5020841;28;20516;-85
2021/12/27 09:04:07;;;;;;;33.77;19.13;;;;;;;;;;5021031;28;20453;-86
2021/12/27 09:06:35;;;;;;;32.03;19.70;;;;;;;;;;5019252;28;20464;-85
2021/12/27 09:11:42;;;;;;;32.87;19.93;;;;;;;;;;5020388;28;20468;-84
2021/12/27 09:14:09;;;;;;;35.20;20.73;;;;;;;;;;5019542;28;21058;-85
2021/12/27 09:16:35;;;;;;;37.20;20.17;;;;;;;;;;5015022;28;20472;-83
2021/12/27 09:19:01;;;;;;;29.90;20.33;;;;;;;;;;5018146;28;20539;-85
2021/12/27 09:21:28;;;;;;;34.67;21.03;;;;;;;;;;5017384;28;20496;-86
2021/12/27 09:23:54;;;;;;;33.83;18.63;;;;;;;;;;5019195;28;20465;-85
2021/12/27 09:26:20;;;;;;;35.93;22.50;;;;;;;;;;5019120;28;20527;-85
2021/12/27 09:28:48;;;;;;;40.70;27.63;;;;;;;;;;5019612;28;21018;-85
2021/12/27 09:31:14;;;;;;;31.37;19.27;;;;;;;;;;5020730;28;20469;-84
2021/12/27 09:33:41;;;;;;;39.43;21.30;;;;;;;;;;5023655;28;20461;-86
2021/12/27 09:36:07;;;;;;;35.33;21.90;;;;;;;;;;5023334;28;20568;-85
2021/12/27 09:38:34;;;;;;;36.00;19.93;;;;;;;;;;5021491;28;20548;-85
2021/12/27 09:41:00;;;;;;;35.03;21.40;;;;;;;;;;5022801;28;20468;-85
2021/12/27 09:43:27;;;;;;;36.67;19.50;;;;;;;;;;5023046;28;20468;-86
2021/12/27 09:45:55;;;;;;;33.57;20.70;;;;;;;;;;5024298;28;20460;-84
2021/12/27 09:48:21;;;;;;;36.43;22.33;;;;;;;;;;5019242;28;20500;-85
2021/12/27 09:50:48;;;;;;;42.33;22.10;;;;;;;;;;5023289;28;20527;-87
2021/12/27 09:53:15;;;;;;;39.60;22.13;;;;;;;;;;5024991;28;20514;-88
2021/12/27 09:55:41;;;;;;;33.93;21.97;;;;;;;;;;5023413;28;20481;-85
2021/12/27 09:58:07;;;;;;;36.73;22.00;;;;;;;;;;5023190;28;20963;-86
2021/12/27 10:00:36;;;;;;;36.53;23.67;;;;;;;;;;5022734;28;20479;-86
2021/12/27 10:03:03;;;;;;;36.40;23.37;;;;;;;;;;5023689;28;20488;-84
2021/12/27 10:05:30;;;;;;;36.43;22.63;;;;;;;;;;5027179;28;20472;-87
2021/12/27 10:07:57;;;;;;;42.13;23.33;;;;;;;;;;5026557;28;20480;-84
2021/12/27 10:10:23;;;;;;;32.40;21.63;;;;;;;;;;5022821;28;20484;-86
2021/12/27 10:12:50;;;;;;;34.53;22.63;;;;;;;;;;5025314;28;20967;-86
2021/12/27 10:15:17;;;;;;;32.00;22.50;;;;;;;;;;5024575;28;20533;-85
2021/12/27 10:17:44;;;;;;;36.27;23.83;;;;;;;;;;5021554;28;20473;-84
2021/12/27 10:20:13;;;;;;;36.27;22.07;;;;;;;;;;5020072;28;20507;-86
2021/12/27 10:22:39;;;;;;;35.67;22.03;;;;;;;;;;5023984;28;20453;-87
2021/12/27 10:25:08;;;;;;;36.20;22.93;;;;;;;;;;5016628;28;21042;-87
2021/12/27 10:27:35;;;;;;;34.90;22.27;;;;;;;;;;5004952;28;20496;-88
2021/12/27 10:30:09;;;;;;;36.50;22.40;;;;;;;;;;5001869;28;20481;-85
2021/12/27 10:32:35;;;;;;;39.30;23.20;;;;;;;;;;5005601;28;20466;-87
2021/12/27 10:35:05;;;;;;;37.80;23.60;;;;;;;;;;5011054;28;20484;-86
2021/12/27 10:37:34;;;;;;;40.67;23.60;;;;;;;;;;5024567;28;20453;-86
2021/12/27 10:40:02;;;;;;;37.73;24.10;;;;;;;;;;5019964;28;20495;-86
2021/12/27 10:42:30;;;;;;;40.03;23.60;;;;;;;;;;5021893;28;20528;-86
2021/12/27 10:44:58;;;;;;;43.50;24.37;;;;;;;;;;5023527;28;20470;-91
2021/12/27 10:47:29;;;;;;;44.33;27.80;;;;;;;;;;5023590;28;20540;-85
2021/12/27 10:50:02;;;;;;;122.50;76.03;;;;;;;;;;5023890;28;20495;-85
2021/12/27 10:52:41;;;;;;;38.73;24.30;;;;;;;;;;5020678;28;20544;-85
2021/12/27 10:55:08;;;;;;;34.83;22.13;;;;;;;;;;5023655;28;20465;-88
2021/12/27 10:57:35;;;;;;;37.47;24.63;;;;;;;;;;5021729;28;20477;-84
2021/12/27 11:00:14;;;;;;;41.13;24.70;;;;;;;;;;5023816;28;20488;-83
2021/12/27 11:02:40;;;;;;;37.67;23.60;;;;;;;;;;5023531;28;21086;-86
2021/12/27 11:05:14;;;;;;;38.43;23.17;;;;;;;;;;5023340;28;20481;-84
2021/12/27 11:07:42;;;;;;;38.73;25.30;;;;;;;;;;5024392;28;21021;-83
2021/12/27 11:10:09;;;;;;;36.50;24.07;;;;;;;;;;5021478;28;20910;-83
2021/12/27 11:12:35;;;;;;;38.07;24.43;;;;;;;;;;5021497;28;21174;-84
2021/12/27 11:15:01;;;;;;;43.00;27.50;;;;;;;;;;5020735;28;21126;-82
2021/12/27 11:17:29;;;;;;;37.73;25.37;;;;;;;;;;5024720;28;20471;-84
2021/12/27 11:19:55;;;;;;;43.23;25.07;;;;;;;;;;5015551;28;20539;-83
2021/12/27 11:22:21;;;;;;;37.00;24.03;;;;;;;;;;5004127;28;20480;-83
2021/12/27 11:24:49;;;;;;;41.60;26.27;;;;;;;;;;5007076;28;20504;-84
2021/12/27 11:27:15;;;;;;;47.37;31.90;;;;;;;;;;5023517;28;20457;-83
2021/12/27 11:29:42;;;;;;;79.40;54.80;;;;;;;;;;5023586;28;20489;-83
2021/12/27 11:32:12;;;;;;;42.83;25.70;;;;;;;;;;5023430;28;20467;-84
2021/12/27 11:34:53;;;;;;;41.03;28.07;;;;;;;;;;5021122;28;20546;-84
2021/12/27 11:37:19;;;;;;;39.07;24.10;;;;;;;;;;5020635;28;20457;-83
2021/12/27 11:39:45;;;;;;;41.13;27.00;;;;;;;;;;5021762;28;20535;-83
2021/12/27 11:42:17;;;;;;;42.57;24.63;;;;;;;;;;5024384;28;20488;-82
2021/12/27 11:44:45;;;;;;;41.03;25.60;;;;;;;;;;5018420;28;20466;-82
2021/12/27 11:47:13;;;;;;;41.13;25.27;;;;;;;;;;5005297;28;20457;-83
2021/12/27 11:49:46;;;;;;;42.17;26.43;;;;;;;;;;5003853;28;20477;-82
2021/12/27 11:52:15;;;;;;;45.27;26.53;;;;;;;;;;5004874;28;20561;-83
2021/12/27 11:54:48;;;;;;;35.80;22.57;;;;;;;;;;5004800;28;20520;-85
2021/12/27 11:57:37;;;;;;;43.90;24.77;;;;;;;;;;5007592;28;20450;-83
2021/12/27 12:00:28;;;;;;;44.17;26.83;;;;;;;;;;5004965;28;20513;-83
2021/12/27 12:02:55;;;;;;;35.67;22.47;;;;;;;;;;5006058;28;20512;-82
2021/12/27 12:05:35;;;;;;;40.57;25.27;;;;;;;;;;5003593;28;21004;-86
2021/12/27 12:08:01;;;;;;;44.23;25.63;;;;;;;;;;5009319;28;20478;-84
2021/12/27 12:10:28;;;;;;;50.07;28.63;;;;;;;;;;5007671;28;20865;-83
2021/12/27 12:13:12;;;;;;;48.67;27.17;;;;;;;;;;5004262;28;20482;-83
2021/12/27 12:15:54;;;;;;;45.37;28.00;;;;;;;;;;4990440;28;20873;-83
2021/12/27 12:18:20;;;;;;;39.33;24.00;;;;;;;;;;5007907;28;20524;-85
2021/12/27 12:20:47;;;;;;;44.37;26.27;;;;;;;;;;5002475;28;20551;-84
2021/12/27 12:23:13;;;;;;;41.60;26.70;;;;;;;;;;5004855;28;20492;-84
2021/12/27 12:25:39;;;;;;;47.40;26.03;;;;;;;;;;5003496;28;20479;-84
2021/12/27 12:28:06;;;;;;;42.33;25.10;;;;;;;;;;5006590;28;20538;-83
2021/12/27 12:30:34;;;;;;;50.27;27.33;;;;;;;;;;5005703;28;20894;-84
2021/12/27 12:33:03;;;;;;;39.23;24.00;;;;;;;;;;5005363;28;20520;-83
2021/12/27 12:35:37;;;;;;;56.47;35.70;;;;;;;;;;5003010;28;20469;-84
2021/12/27 12:38:11;;;;;;;55.33;45.03;;;;;;;;;;5004896;28;20456;-81
2021/12/27 12:40:37;;;;;;;56.13;35.97;;;;;;;;;;5003884;28;20489;-82
2021/12/27 12:43:03;;;;;;;45.57;29.17;;;;;;;;;;5004974;28;20456;-85
2021/12/27 12:45:30;;;;;;;44.53;28.50;;;;;;;;;;5002323;28;20528;-83
2021/12/27 12:47:56;;;;;;;44.93;27.53;;;;;;;;;;5002156;28;20469;-83
2021/12/27 12:50:24;;;;;;;38.00;24.17;;;;;;;;;;5001806;28;20827;-83
2021/12/27 12:52:50;;;;;;;41.50;24.50;;;;;;;;;;5002240;28;20454;-82
2021/12/27 12:55:19;;;;;;;46.63;24.63;;;;;;;;;;5001976;28;20532;-82
2021/12/27 12:57:47;;;;;;;38.77;26.60;;;;;;;;;;5004508;28;20885;-84
2021/12/27 13:00:13;;;;;;;40.40;25.00;;;;;;;;;;4995742;28;21027;-82
2021/12/27 13:02:41;;;;;;;40.10;26.10;;;;;;;;;;5002079;28;21032;-84
2021/12/27 13:05:09;;;;;;;45.33;23.63;;;;;;;;;;5002225;28;20474;-82
2021/12/27 13:07:39;;;;;;;39.80;25.97;;;;;;;;;;5004235;28;20468;-82
2021/12/27 13:10:06;;;;;;;40.80;26.13;;;;;;;;;;5004342;28;20515;-83
2021/12/27 13:12:33;;;;;;;40.37;23.40;;;;;;;;;;5006476;28;20450;-82
2021/12/27 13:15:07;;;;;;;42.77;24.73;;;;;;;;;;5068554;23;20530;-85
2021/12/27 13:17:37;;;;;;;38.40;24.03;;;;;;;;;;5050383;28;20447;-85
2021/12/27 13:20:08;;;;;;;44.50;33.03;;;;;;;;;;5050132;28;20490;-85
2021/12/27 13:22:53;;;;;;;42.93;25.20;;;;;;;;;;5051576;28;20444;-85
2021/12/27 13:25:30;;;;;;;42.03;25.77;;;;;;;;;;5055596;28;20474;-85
2021/12/27 13:28:06;;;;;;;47.20;26.23;;;;;;;;;;5070600;28;20510;-85
2021/12/27 13:30:43;;;;;;;57.93;39.77;;;;;;;;;;5067921;28;20733;-85
2021/12/27 13:33:10;;;;;;;50.17;33.47;;;;;;;;;;5065953;28;20860;-85
2021/12/27 13:35:36;;;;;;;36.17;23.10;;;;;;;;;;5068234;28;20480;-85
2021/12/27 13:38:03;;;;;;;38.73;24.40;;;;;;;;;;5069818;28;20881;-85
2021/12/27 13:40:30;;;;;;;38.27;23.50;;;;;;;;;;5067422;28;20501;-85
2021/12/27 13:43:01;;;;;;;35.07;23.00;;;;;;;;;;5071131;28;20455;-85
2021/12/27 13:45:39;;;;;;;35.10;23.33;;;;;;;;;;5072345;28;20506;-85
2021/12/27 13:48:06;;;;;;;38.83;24.43;;;;;;;;;;5070081;28;20525;-85
2021/12/27 13:50:32;;;;;;;42.53;25.93;;;;;;;;;;5068597;28;20490;-85
2021/12/27 13:52:59;;;;;;;39.57;26.07;;;;;;;;;;5070187;28;20474;-85
2021/12/27 13:55:27;;;;;;;42.93;24.83;;;;;;;;;;5069549;28;20490;-85
2021/12/27 13:57:54;;;;;;;39.23;24.37;;;;;;;;;;5068342;28;20959;-85
2021/12/27 14:00:26;;;;;;;37.53;23.30;;;;;;;;;;5068906;28;20478;-85
2021/12/27 14:02:53;;;;;;;38.90;23.50;;;;;;;;;;5069472;28;20443;-85
2021/12/27 14:05:24;;;;;;;39.13;25.70;;;;;;;;;;5068440;28;20475;-86
2021/12/27 14:07:50;;;;;;;39.40;24.67;;;;;;;;;;5067615;28;20470;-85
2021/12/27 14:10:19;;;;;;;37.33;24.50;;;;;;;;;;5069591;28;20480;-84
2021/12/27 14:12:55;;;;;;;40.33;28.80;;;;;;;;;;5066322;28;20579;-85
2021/12/27 14:15:27;;;;;;;39.20;24.40;;;;;;;;;;5062797;28;20506;-87
2021/12/27 14:17:53;;;;;;;39.47;23.93;;;;;;;;;;5063005;28;20535;-84
2021/12/27 14:20:20;;;;;;;40.30;24.47;;;;;;;;;;5063451;28;20481;-84
2021/12/27 14:22:47;;;;;;;49.27;29.63;;;;;;;;;;5062663;28;20517;-86
2021/12/27 14:25:15;;;;;;;44.87;26.10;;;;;;;;;;5059402;28;20904;-84
2021/12/27 14:27:42;;;;;;;42.87;26.57;;;;;;;;;;5056938;28;20466;-83